createdAt,value
2018-12-06T00:03:09.179Z,2.00
2018-12-06T00:08:17.200Z,1.00
2018-12-06T00:13:20.616Z,2.00
2018-12-06T00:18:24.081Z,1.00
2018-12-06T00:23:27.403Z,1.00
2018-12-06T00:28:30.800Z,1.00
2018-12-06T00:33:34.172Z,2.00
2018-12-06T00:38:37.629Z,2.00
2018-12-06T00:43:41.093Z,2.00
2018-12-06T00:48:44.572Z,1.50
2018-12-06T00:53:48.073Z,2.00
2018-12-06T00:58:51.492Z,1.25
2018-12-06T01:03:54.945Z,1.60
2018-12-06T01:08:58.381Z,1.00
2018-12-06T01:14:01.826Z,1.50
2018-12-06T01:19:08.296Z,1.25
2018-12-06T01:24:11.688Z,2.00
2018-12-06T01:29:15.081Z,1.00
2018-12-06T01:34:18.544Z,1.00
2018-12-06T01:39:21.996Z,1.00
2018-12-06T01:44:25.539Z,2.00
2018-12-06T01:49:29.137Z,1.00
2018-12-06T01:54:32.672Z,1.00
2018-12-06T01:59:36.101Z,1.00
2018-12-06T02:04:39.467Z,1.00
2018-12-06T02:09:42.900Z,0.40
2018-12-06T02:14:46.303Z,1.00
2018-12-06T02:19:49.693Z,0.60
2018-12-06T02:24:53.125Z,0.20
2018-12-06T02:29:56.457Z,1.50
2018-12-06T02:34:59.933Z,1.00
2018-12-06T02:40:03.844Z,1.00
2018-12-06T02:45:07.410Z,1.40
2018-12-06T02:50:10.840Z,1.00
2018-12-06T02:55:14.386Z,0.80
2018-12-06T03:00:17.827Z,1.00
2018-12-06T03:05:21.192Z,0.60
2018-12-06T03:10:24.566Z,1.00
2018-12-06T03:15:28.037Z,1.60
2018-12-06T03:20:31.623Z,0.75
2018-12-06T03:25:35.011Z,1.00
2018-12-06T03:30:38.487Z,0.80
2018-12-06T03:35:41.902Z,0.25
2018-12-06T03:40:45.346Z,0.50
2018-12-06T03:45:48.779Z,1.00
2018-12-06T03:50:52.155Z,1.00
2018-12-06T03:55:55.492Z,0.00
2018-12-06T04:00:58.861Z,1.00
2018-12-06T04:06:02.349Z,0.50
2018-12-06T04:11:05.724Z,0.80
2018-12-06T04:16:09.089Z,1.00
2018-12-06T04:21:12.466Z,0.60
2018-12-06T04:26:15.917Z,0.60
2018-12-06T04:31:19.336Z,1.00
2018-12-06T04:36:22.686Z,0.80
2018-12-06T04:41:26.117Z,0.80
2018-12-06T04:46:29.598Z,0.00
2018-12-06T04:51:33.074Z,0.00
2018-12-06T04:56:36.553Z,0.00
2018-12-06T05:01:40.041Z,0.60
2018-12-06T05:06:43.503Z,0.00
2018-12-06T05:11:47.923Z,1.00
2018-12-06T05:16:51.423Z,0.00
2018-12-06T05:21:54.828Z,1.00
2018-12-06T05:26:58.216Z,0.60
2018-12-06T05:32:01.852Z,0.80
2018-12-06T05:37:05.357Z,1.25
2018-12-06T05:42:08.864Z,1.50
2018-12-06T05:47:12.355Z,2.00
2018-12-06T05:52:15.803Z,0.00
2018-12-06T05:57:19.258Z,1.00
2018-12-06T06:02:29.034Z,1.00
2018-12-06T06:07:32.419Z,0.00
2018-12-06T06:12:35.935Z,0.00
2018-12-06T06:17:39.389Z,1.00
2018-12-06T06:22:42.766Z,2.00
2018-12-06T06:27:46.162Z,0.00
2018-12-06T06:32:49.566Z,-0.25
2018-12-06T06:37:52.939Z,1.60
2018-12-06T06:42:56.328Z,0.00
2018-12-06T06:47:59.861Z,0.50
2018-12-06T06:53:03.220Z,1.00
2018-12-06T06:58:06.622Z,2.00
2018-12-06T07:03:16.806Z,0.80
2018-12-06T07:08:20.290Z,1.00
2018-12-06T07:13:23.704Z,1.25
2018-12-06T07:18:27.089Z,0.25
2018-12-06T07:23:30.521Z,1.00
2018-12-06T07:28:33.946Z,0.60
2018-12-06T07:33:37.540Z,0.00
2018-12-06T07:38:40.976Z,0.00
2018-12-06T07:43:44.304Z,4.00
2018-12-06T07:48:47.663Z,4.80
2018-12-06T07:53:51.146Z,5.00
2018-12-06T07:58:54.535Z,3.25
2018-12-06T08:03:58.034Z,5.20
2018-12-06T08:09:01.423Z,4.25
2018-12-06T08:14:04.947Z,4.00
2018-12-06T08:19:08.302Z,5.00
2018-12-06T08:24:11.667Z,4.60
2018-12-06T08:29:15.003Z,4.60
2018-12-06T08:34:18.323Z,3.75
2018-12-06T08:44:31.246Z,3.25
2018-12-06T08:49:34.623Z,3.50
2018-12-06T08:54:37.942Z,3.00
2018-12-06T08:59:41.371Z,3.50
2018-12-06T09:04:44.717Z,3.00
2018-12-06T09:09:48.188Z,2.80
2018-12-06T09:14:51.551Z,3.00
2018-12-06T09:19:54.971Z,3.75
2018-12-06T09:24:58.377Z,3.00
2018-12-06T09:30:01.847Z,2.00
2018-12-06T09:35:06.114Z,2.80
2018-12-06T09:40:10.361Z,2.80
2018-12-06T09:45:14.109Z,2.00
2018-12-06T09:50:17.532Z,3.75
2018-12-06T09:55:20.897Z,2.00
2018-12-06T10:00:24.367Z,2.60
2018-12-06T10:05:27.690Z,2.00
2018-12-06T10:10:31.140Z,2.60
2018-12-06T10:15:34.585Z,3.00
2018-12-06T10:20:37.971Z,2.00
2018-12-06T10:25:41.415Z,2.00
2018-12-06T10:30:44.766Z,3.00
2018-12-06T10:35:48.214Z,1.60
2018-12-06T10:40:51.603Z,2.00
2018-12-06T10:45:55.014Z,0.50
2018-12-06T10:51:09.748Z,1.00
2018-12-06T10:56:13.131Z,2.00
2018-12-06T11:01:18.915Z,3.00
2018-12-06T11:06:22.430Z,2.75
2018-12-06T11:11:26.574Z,2.00
2018-12-06T11:16:30.082Z,2.00
2018-12-06T11:21:33.484Z,2.25
2018-12-06T11:26:37.120Z,2.00
2018-12-06T11:31:40.571Z,1.80
2018-12-06T11:36:44.071Z,2.40
2018-12-06T11:41:47.454Z,2.00
2018-12-06T11:46:50.897Z,1.00
2018-12-06T11:51:54.355Z,1.00
2018-12-06T11:56:57.788Z,1.00
2018-12-06T12:02:01.338Z,2.00
2018-12-06T12:07:04.826Z,2.00
2018-12-06T12:12:08.206Z,0.75
2018-12-06T12:17:11.651Z,0.80
2018-12-06T12:22:15.054Z,1.40
2018-12-06T12:27:18.545Z,0.25
2018-12-06T12:32:22.107Z,1.00
2018-12-06T12:37:25.602Z,1.50
2018-12-06T12:42:29.082Z,1.00
2018-12-06T12:47:32.615Z,0.80
2018-12-06T12:52:36.075Z,1.00
2018-12-06T12:57:39.479Z,1.25
2018-12-06T13:02:42.976Z,0.20
2018-12-06T13:07:46.495Z,1.75
2018-12-06T13:12:50.341Z,1.00
2018-12-06T13:17:53.723Z,1.40
2018-12-06T13:22:57.236Z,1.00
2018-12-06T13:28:00.756Z,0.00
2018-12-06T13:33:04.233Z,1.00
2018-12-06T13:38:07.824Z,0.40
2018-12-06T13:43:11.344Z,0.40
2018-12-06T13:48:14.872Z,0.75
2018-12-06T13:53:18.389Z,0.00
2018-12-06T13:58:21.824Z,0.00
2018-12-06T14:03:25.358Z,1.00
2018-12-06T14:08:28.807Z,1.00
2018-12-06T14:13:32.258Z,0.00
2018-12-06T14:18:35.688Z,1.00
2018-12-06T14:23:39.040Z,0.00
2018-12-06T14:28:42.402Z,1.00
2018-12-06T14:33:54.498Z,0.00
2018-12-06T14:38:57.931Z,1.00
2018-12-06T14:44:01.279Z,0.75
2018-12-06T14:49:04.772Z,0.00
2018-12-06T14:54:08.170Z,0.00
2018-12-06T14:59:11.515Z,0.00
2018-12-06T15:04:14.925Z,1.20
2018-12-06T15:09:18.495Z,1.00
2018-12-06T15:14:21.815Z,0.80
2018-12-06T15:19:25.205Z,0.00
2018-12-06T15:24:28.614Z,1.60
2018-12-06T15:29:32.037Z,1.60
2018-12-06T15:34:35.567Z,1.40
2018-12-06T15:39:38.924Z,0.60
2018-12-06T15:44:42.942Z,2.00
2018-12-06T15:49:46.267Z,1.20
2018-12-06T15:55:16.568Z,0.80
2018-12-06T16:00:20.008Z,1.00
2018-12-06T16:05:23.379Z,6.80
2018-12-06T16:10:26.999Z,31.00
2018-12-06T16:15:30.470Z,26.00
2018-12-06T16:20:33.854Z,23.25
2018-12-06T16:25:37.869Z,19.00
2018-12-06T16:30:41.272Z,17.75
2018-12-06T16:35:46.448Z,17.80
2018-12-06T16:40:49.934Z,14.00
2018-12-06T16:45:59.939Z,14.00
2018-12-06T16:51:03.299Z,11.75
2018-12-06T16:56:07.812Z,14.60
2018-12-06T17:01:11.319Z,13.75
2018-12-06T17:06:15.344Z,13.00
2018-12-06T17:11:18.701Z,26.60
2018-12-06T17:16:22.116Z,31.40
2018-12-06T17:21:25.471Z,25.75
2018-12-06T17:26:29.374Z,23.20
2018-12-06T17:31:32.689Z,24.40
2018-12-06T17:36:36.123Z,24.20
2018-12-06T17:41:39.484Z,22.50
2018-12-06T17:46:42.918Z,21.80
2018-12-06T17:51:46.423Z,22.00
2018-12-06T17:56:49.768Z,21.00
2018-12-06T18:01:53.082Z,19.75
2018-12-06T18:06:56.499Z,19.00
2018-12-06T18:11:59.851Z,25.20
2018-12-06T18:17:03.286Z,26.00
2018-12-06T18:22:06.716Z,24.00
2018-12-06T18:27:10.239Z,22.00
2018-12-06T18:32:13.607Z,21.50
2018-12-06T18:37:17.106Z,18.00
2018-12-06T18:42:20.459Z,19.20
2018-12-06T18:47:23.978Z,17.40
2018-12-06T18:52:27.375Z,18.50
2018-12-06T18:57:30.751Z,18.20
2018-12-06T19:02:34.178Z,16.75
2018-12-06T19:07:37.533Z,17.20
2018-12-06T19:12:40.842Z,14.20
2018-12-06T19:17:44.230Z,13.25
2018-12-06T19:22:47.563Z,12.80
2018-12-06T19:27:51.015Z,12.60
2018-12-06T19:32:57.819Z,12.75
2018-12-06T19:37:58.867Z,12.80
2018-12-06T19:43:02.274Z,10.25
2018-12-06T19:48:05.634Z,11.00
2018-12-06T19:53:08.960Z,11.00
2018-12-06T19:58:12.299Z,10.25
2018-12-06T20:03:15.630Z,8.80
2018-12-06T20:08:19.309Z,9.75
2018-12-06T20:13:22.618Z,7.75
2018-12-06T20:18:26.027Z,7.20
2018-12-06T20:23:29.455Z,8.50
2018-12-06T20:28:32.864Z,7.00
2018-12-06T20:33:36.199Z,8.00
2018-12-06T20:38:39.536Z,8.00
2018-12-06T20:43:42.961Z,6.00
2018-12-06T20:48:46.363Z,6.50
2018-12-06T20:53:49.855Z,5.20
2018-12-06T20:58:53.410Z,5.75
2018-12-06T21:03:56.852Z,5.00
2018-12-06T21:09:00.375Z,6.00
2018-12-06T21:14:03.871Z,5.25
2018-12-06T21:19:07.890Z,6.00
2018-12-06T21:24:11.470Z,6.00
2018-12-06T21:29:14.879Z,4.25
2018-12-06T21:34:18.278Z,4.25
2018-12-06T21:39:21.735Z,6.00
2018-12-06T21:44:25.096Z,5.00
2018-12-06T21:49:28.494Z,5.00
2018-12-06T21:54:31.859Z,5.00
2018-12-06T21:59:35.183Z,5.60
2018-12-06T22:04:38.526Z,7.00
2018-12-06T22:09:42.792Z,5.00
2018-12-06T22:14:46.243Z,4.00
2018-12-06T22:19:49.650Z,5.00
2018-12-06T22:24:53.331Z,4.00
2018-12-06T22:29:56.691Z,5.40
2018-12-06T22:35:00.113Z,3.50
2018-12-06T22:40:04.274Z,5.00
2018-12-06T22:46:11.979Z,4.00
2018-12-06T22:51:15.437Z,4.00
2018-12-06T22:56:18.818Z,4.80
2018-12-06T23:01:28.533Z,4.80
2018-12-06T23:06:32.168Z,3.20
2018-12-06T23:11:35.566Z,4.00
2018-12-06T23:16:39.085Z,4.00
2018-12-06T23:21:42.478Z,4.20
2018-12-06T23:26:45.834Z,4.00
2018-12-06T23:31:49.515Z,4.00
2018-12-06T23:36:52.942Z,4.00
2018-12-06T23:41:56.411Z,4.25
2018-12-06T23:47:00.228Z,3.00
2018-12-06T23:52:03.604Z,4.20
2018-12-06T23:57:07.164Z,3.75
